createdAt,value
2022-07-31T00:02:08.040Z,25.27
2022-07-31T00:04:34.589Z,26.98
2022-07-31T00:07:01.423Z,19.25
2022-07-31T00:09:52.541Z,19.90
2022-07-31T00:12:38.420Z,18.42
2022-07-31T00:15:06.983Z,20.00
2022-07-31T00:17:34.030Z,23.38
2022-07-31T00:20:00.470Z,19.88
2022-07-31T00:22:26.867Z,21.58
2022-07-31T00:24:53.333Z,26.83
2022-07-31T00:27:19.783Z,28.02
2022-07-31T00:29:46.497Z,23.27
2022-07-31T00:32:13.061Z,24.70
2022-07-31T00:34:39.508Z,25.33
2022-07-31T00:37:06.332Z,28.45
2022-07-31T00:39:33.121Z,23.88
2022-07-31T00:41:59.634Z,25.02
2022-07-31T00:44:26.193Z,28.05
2022-07-31T00:46:52.691Z,27.98
2022-07-31T00:49:19.937Z,29.05
2022-07-31T00:51:46.466Z,24.65
2022-07-31T00:54:16.281Z,25.20
2022-07-31T00:56:50.048Z,24.40
2022-07-31T00:59:16.811Z,23.90
2022-07-31T01:01:51.146Z,29.42
2022-07-31T01:04:19.713Z,26.08
2022-07-31T01:06:47.531Z,21.35
2022-07-31T01:09:17.338Z,22.65
2022-07-31T01:11:50.585Z,21.95
2022-07-31T01:14:20.226Z,21.25
2022-07-31T01:16:49.238Z,25.42
2022-07-31T01:19:37.903Z,18.33
2022-07-31T01:22:43.967Z,17.88
2022-07-31T01:25:10.338Z,17.63
2022-07-31T01:27:56.288Z,17.35
2022-07-31T01:30:30.466Z,18.20
2022-07-31T01:33:02.338Z,27.10
2022-07-31T01:35:35.058Z,21.65
2022-07-31T01:38:13.104Z,24.17
2022-07-31T01:40:46.553Z,21.60
2022-07-31T01:43:19.046Z,27.23
2022-07-31T01:45:48.007Z,22.52
2022-07-31T01:48:17.147Z,22.10
2022-07-31T01:50:47.154Z,22.42
2022-07-31T01:53:20.156Z,24.17
2022-07-31T01:56:00.896Z,24.67
2022-07-31T01:58:34.813Z,23.63
2022-07-31T02:01:03.644Z,23.92
2022-07-31T02:03:43.420Z,22.58
2022-07-31T02:06:13.400Z,21.25
2022-07-31T02:08:40.504Z,22.33
2022-07-31T02:11:08.539Z,23.50
2022-07-31T02:13:37.353Z,21.15
2022-07-31T02:16:05.578Z,22.00
2022-07-31T02:18:34.074Z,19.60
2022-07-31T02:21:00.640Z,22.75
2022-07-31T02:23:27.075Z,20.88
2022-07-31T02:25:54.473Z,21.77
2022-07-31T02:28:22.184Z,20.67
2022-07-31T02:30:49.771Z,21.75
2022-07-31T02:33:23.113Z,22.67
2022-07-31T02:35:51.558Z,23.23
2022-07-31T02:38:23.395Z,22.23
2022-07-31T02:40:53.210Z,22.33
2022-07-31T02:43:21.093Z,20.90
2022-07-31T02:45:48.366Z,22.00
2022-07-31T02:48:15.407Z,22.20
2022-07-31T02:50:42.970Z,23.35
2022-07-31T02:53:09.756Z,24.58
2022-07-31T02:55:36.871Z,23.63
2022-07-31T02:58:06.175Z,22.95
2022-07-31T03:00:32.982Z,23.50
2022-07-31T03:02:59.415Z,21.60
2022-07-31T03:05:25.912Z,23.98
2022-07-31T03:07:52.585Z,21.42
2022-07-31T03:10:19.098Z,21.90
2022-07-31T03:12:52.670Z,21.80
2022-07-31T03:15:22.331Z,21.95
2022-07-31T03:17:49.926Z,19.23
2022-07-31T03:20:17.124Z,18.50
2022-07-31T03:22:44.330Z,19.23
2022-07-31T03:25:11.482Z,19.23
2022-07-31T03:27:52.501Z,20.95
2022-07-31T03:30:26.393Z,18.35
2022-07-31T03:32:54.272Z,18.92
2022-07-31T03:35:21.124Z,19.17
2022-07-31T03:37:47.560Z,19.38
2022-07-31T03:40:14.097Z,17.17
2022-07-31T03:42:41.858Z,17.48
2022-07-31T03:45:10.814Z,18.58
2022-07-31T03:47:37.736Z,18.33
2022-07-31T03:50:04.725Z,17.90
2022-07-31T03:52:31.457Z,18.23
2022-07-31T03:54:57.915Z,18.52
2022-07-31T03:57:30.249Z,17.63
2022-07-31T04:00:02.334Z,18.77
2022-07-31T04:02:29.755Z,17.33
2022-07-31T04:04:57.307Z,18.42
2022-07-31T04:07:24.495Z,19.83
2022-07-31T04:09:51.438Z,18.92
2022-07-31T04:12:17.921Z,19.10
2022-07-31T04:14:44.620Z,19.25
2022-07-31T04:17:12.111Z,18.80
2022-07-31T04:19:39.273Z,20.60
2022-07-31T04:22:06.854Z,20.38
2022-07-31T04:24:34.047Z,19.92
2022-07-31T04:27:00.743Z,20.80
2022-07-31T04:29:29.825Z,21.83
2022-07-31T04:31:57.182Z,20.17
2022-07-31T04:34:23.646Z,20.27
2022-07-31T04:36:50.193Z,20.83
2022-07-31T04:39:16.828Z,20.65
2022-07-31T04:41:43.283Z,21.70
2022-07-31T04:44:10.447Z,19.75
2022-07-31T04:46:37.153Z,22.48
2022-07-31T04:49:03.755Z,17.33
2022-07-31T04:51:30.339Z,20.83
2022-07-31T04:53:56.767Z,18.55
2022-07-31T04:56:42.087Z,18.80
2022-07-31T04:59:16.277Z,17.83
2022-07-31T05:01:43.804Z,19.83
2022-07-31T05:04:10.974Z,17.23
2022-07-31T05:06:43.617Z,17.92
2022-07-31T05:09:18.695Z,16.67
2022-07-31T05:11:47.226Z,17.05
2022-07-31T05:14:15.354Z,17.27
2022-07-31T05:16:42.216Z,18.33
2022-07-31T05:19:13.818Z,18.92
2022-07-31T05:21:47.119Z,18.15
2022-07-31T05:24:33.093Z,17.58
2022-07-31T05:27:01.490Z,18.38
2022-07-31T05:29:27.974Z,20.02
2022-07-31T05:31:59.407Z,20.67
2022-07-31T05:34:29.205Z,21.75
2022-07-31T05:36:56.728Z,21.92
2022-07-31T05:39:25.055Z,25.23
2022-07-31T05:41:52.695Z,26.02
2022-07-31T05:44:19.109Z,29.13
2022-07-31T05:46:45.591Z,30.95
2022-07-31T05:49:12.090Z,35.25
2022-07-31T05:51:38.595Z,36.08
2022-07-31T05:54:05.076Z,39.30
2022-07-31T05:56:31.504Z,44.42
2022-07-31T05:58:58.008Z,45.22
2022-07-31T06:01:24.459Z,49.60
2022-07-31T06:03:51.914Z,53.00
2022-07-31T06:06:19.294Z,58.78
2022-07-31T06:08:45.739Z,54.92
2022-07-31T06:11:12.191Z,49.28
2022-07-31T06:13:38.857Z,45.50
2022-07-31T06:16:11.978Z,47.00
2022-07-31T06:18:38.486Z,46.67
2022-07-31T06:21:04.908Z,51.65
2022-07-31T06:23:32.412Z,51.28
2022-07-31T06:25:59.199Z,57.58
2022-07-31T06:28:47.476Z,66.88
2022-07-31T06:31:19.939Z,56.08
2022-07-31T06:36:15.735Z,54.10
2022-07-31T06:38:42.172Z,61.97
2022-07-31T06:41:08.603Z,60.90
2022-07-31T06:43:35.045Z,75.07
2022-07-31T06:46:01.519Z,74.93
2022-07-31T06:48:28.399Z,71.43
2022-07-31T06:51:14.470Z,65.53
2022-07-31T06:53:41.489Z,58.72
2022-07-31T06:56:07.924Z,64.68
2022-07-31T06:58:34.437Z,73.63
2022-07-31T07:01:00.975Z,64.45
2022-07-31T07:03:27.414Z,79.65
2022-07-31T07:05:53.851Z,86.32
2022-07-31T07:08:20.249Z,81.65
2022-07-31T07:10:46.902Z,81.68
2022-07-31T07:13:13.324Z,85.60
2022-07-31T07:15:39.742Z,92.82
2022-07-31T07:18:06.938Z,89.80
2022-07-31T07:20:33.580Z,85.25
2022-07-31T07:23:00.125Z,79.40
2022-07-31T07:25:26.553Z,90.72
2022-07-31T07:27:53.738Z,80.43
2022-07-31T07:30:20.334Z,73.50
2022-07-31T07:32:46.743Z,76.75
2022-07-31T07:35:13.484Z,77.25
2022-07-31T07:37:40.902Z,74.85
2022-07-31T07:40:08.746Z,75.03
2022-07-31T07:42:35.503Z,78.45
2022-07-31T07:45:02.811Z,81.57
2022-07-31T07:48:05.770Z,78.13
2022-07-31T07:50:19.582Z,72.43
2022-07-31T07:52:46.200Z,79.57
2022-07-31T07:55:12.739Z,74.78
2022-07-31T07:57:40.171Z,68.85
2022-07-31T08:00:09.566Z,79.35
2022-07-31T08:02:36.449Z,81.25
2022-07-31T08:05:03.063Z,66.50
2022-07-31T08:07:42.176Z,66.88
2022-07-31T08:10:10.285Z,65.40
2022-07-31T08:12:37.184Z,60.63
2022-07-31T08:15:05.527Z,63.47
2022-07-31T08:17:31.951Z,62.70
2022-07-31T08:19:58.373Z,65.60
2022-07-31T08:22:24.836Z,76.13
2022-07-31T08:24:51.388Z,60.80
2022-07-31T08:27:24.022Z,60.63
2022-07-31T08:30:07.079Z,58.65
2022-07-31T08:32:33.593Z,55.75
2022-07-31T08:35:00.119Z,52.60
2022-07-31T08:38:02.710Z,49.20
2022-07-31T08:40:13.142Z,47.05
2022-07-31T08:42:39.650Z,42.90
2022-07-31T08:45:08.099Z,37.92
2022-07-31T08:47:36.137Z,37.67
2022-07-31T08:50:05.532Z,39.90
2022-07-31T08:52:34.703Z,34.80
2022-07-31T08:55:06.870Z,38.00
2022-07-31T08:57:34.219Z,35.90
2022-07-31T09:00:00.628Z,44.15
2022-07-31T09:02:27.102Z,41.53
2022-07-31T09:04:54.618Z,36.50
2022-07-31T09:07:21.026Z,38.30
2022-07-31T09:09:51.148Z,31.55
2022-07-31T09:12:38.990Z,37.38
2022-07-31T09:15:19.729Z,31.45
2022-07-31T09:17:53.894Z,33.55
2022-07-31T09:20:33.103Z,37.25
2022-07-31T09:23:08.054Z,38.70
2022-07-31T09:25:34.827Z,32.83
2022-07-31T09:28:06.444Z,38.35
2022-07-31T09:30:34.159Z,37.67
2022-07-31T09:33:19.040Z,27.90
2022-07-31T09:35:52.730Z,28.77
2022-07-31T09:38:20.559Z,29.92
2022-07-31T09:40:55.167Z,28.58
2022-07-31T09:43:31.806Z,25.88
2022-07-31T09:45:59.933Z,26.60
2022-07-31T09:48:28.812Z,28.50
2022-07-31T09:51:04.606Z,32.22
2022-07-31T09:53:53.496Z,28.92
2022-07-31T09:56:35.994Z,29.77
2022-07-31T09:59:03.173Z,34.13
2022-07-31T10:01:30.920Z,35.83
2022-07-31T10:04:00.567Z,37.28
2022-07-31T10:06:31.617Z,36.97
2022-07-31T10:08:59.942Z,34.53
2022-07-31T10:11:27.915Z,36.33
2022-07-31T10:13:57.035Z,31.83
2022-07-31T10:16:27.369Z,37.63
2022-07-31T10:18:59.521Z,38.03
2022-07-31T10:21:32.221Z,39.05
2022-07-31T10:24:00.663Z,36.55
2022-07-31T10:26:50.746Z,33.55
2022-07-31T10:29:17.562Z,32.78
2022-07-31T10:31:46.233Z,29.20
2022-07-31T10:34:15.545Z,31.40
2022-07-31T10:36:44.997Z,26.35
2022-07-31T10:39:49.279Z,23.75
2022-07-31T10:42:19.629Z,27.60
2022-07-31T10:44:55.418Z,27.77
2022-07-31T10:47:22.151Z,26.95
2022-07-31T10:49:49.741Z,27.85
2022-07-31T10:52:37.168Z,27.45
2022-07-31T10:55:27.274Z,24.92
2022-07-31T10:57:57.163Z,24.13
2022-07-31T11:00:28.353Z,23.88
2022-07-31T11:02:56.979Z,23.10
2022-07-31T11:05:24.548Z,26.27
2022-07-31T11:08:05.430Z,26.85
2022-07-31T11:10:34.120Z,26.23
2022-07-31T11:13:08.869Z,24.33
2022-07-31T11:15:37.407Z,32.13
2022-07-31T11:18:24.888Z,24.95
2022-07-31T11:21:13.326Z,25.92
2022-07-31T11:23:56.093Z,24.70
2022-07-31T11:26:32.805Z,25.27
2022-07-31T11:30:00.452Z,26.42
2022-07-31T11:31:58.633Z,25.63
2022-07-31T11:34:26.019Z,25.35
2022-07-31T11:36:52.536Z,29.23
2022-07-31T11:39:19.014Z,26.20
2022-07-31T11:41:52.563Z,34.20
2022-07-31T11:44:22.173Z,28.52
2022-07-31T11:46:51.195Z,26.98
2022-07-31T11:49:47.959Z,26.38
2022-07-31T11:52:30.799Z,28.80
2022-07-31T11:55:10.027Z,26.25
2022-07-31T11:57:52.423Z,28.52
2022-07-31T12:00:29.250Z,30.40
2022-07-31T12:02:57.658Z,28.20
2022-07-31T12:05:38.845Z,27.55
2022-07-31T12:08:07.737Z,25.52
2022-07-31T12:10:34.876Z,24.95
2022-07-31T12:13:02.347Z,42.72
2022-07-31T12:15:28.811Z,49.70
2022-07-31T12:18:08.108Z,49.38
2022-07-31T12:20:36.506Z,47.63
2022-07-31T12:23:05.690Z,55.35
2022-07-31T12:25:43.227Z,41.00
2022-07-31T12:28:10.148Z,46.58
2022-07-31T12:30:36.849Z,41.65
2022-07-31T12:33:08.041Z,39.22
2022-07-31T12:35:55.655Z,49.85
2022-07-31T12:38:40.760Z,51.78
2022-07-31T12:41:08.150Z,48.67
2022-07-31T12:43:37.631Z,42.42
2022-07-31T12:46:06.857Z,53.05
2022-07-31T12:48:38.593Z,52.88
2022-07-31T12:51:06.725Z,42.57
2022-07-31T12:53:33.218Z,47.05
2022-07-31T12:55:59.593Z,45.60
2022-07-31T12:58:26.028Z,45.67
2022-07-31T13:00:54.696Z,37.65
2022-07-31T13:03:21.398Z,35.28
2022-07-31T13:05:51.752Z,45.85
2022-07-31T13:08:18.652Z,44.17
2022-07-31T13:10:46.098Z,57.80
2022-07-31T13:13:12.617Z,49.47
2022-07-31T13:15:39.201Z,34.70
2022-07-31T13:18:05.792Z,42.17
2022-07-31T13:20:32.824Z,23.10
2022-07-31T13:22:59.592Z,43.67
2022-07-31T13:25:28.357Z,34.47
2022-07-31T13:27:54.771Z,61.70
2022-07-31T13:30:21.179Z,27.75
2022-07-31T13:32:47.611Z,27.58
2022-07-31T13:35:25.970Z,27.63
2022-07-31T13:37:55.217Z,21.67
2022-07-31T13:40:40.413Z,28.48
2022-07-31T13:43:06.877Z,37.13
2022-07-31T13:45:33.264Z,48.17
2022-07-31T13:48:00.989Z,44.53
2022-07-31T13:50:28.836Z,41.72
2022-07-31T13:52:57.648Z,47.72
2022-07-31T13:55:25.443Z,44.05
2022-07-31T13:57:52.375Z,48.17
2022-07-31T14:00:21.986Z,44.03
2022-07-31T14:02:49.964Z,23.60
2022-07-31T14:05:16.635Z,17.33
2022-07-31T14:07:48.212Z,17.92
2022-07-31T14:10:20.575Z,26.92
2022-07-31T14:12:47.988Z,20.48
2022-07-31T14:15:14.570Z,26.27
2022-07-31T14:17:41.035Z,23.58
2022-07-31T14:20:08.122Z,36.88
2022-07-31T14:22:34.769Z,30.17
2022-07-31T14:25:01.198Z,31.75
2022-07-31T14:27:27.677Z,46.33
2022-07-31T14:29:54.162Z,47.92
2022-07-31T14:32:22.012Z,43.60
2022-07-31T14:34:51.608Z,36.97
2022-07-31T14:37:18.475Z,44.15
2022-07-31T14:39:44.976Z,40.95
2022-07-31T14:42:12.337Z,40.20
2022-07-31T14:44:41.867Z,36.22
2022-07-31T14:47:10.404Z,42.55
2022-07-31T14:50:08.996Z,34.75
2022-07-31T14:52:23.846Z,33.67
2022-07-31T14:54:50.398Z,33.35
2022-07-31T14:57:20.129Z,34.05
2022-07-31T14:59:49.897Z,41.45
2022-07-31T15:02:21.450Z,42.90
2022-07-31T15:04:48.892Z,34.78
2022-07-31T15:07:34.346Z,34.70
2022-07-31T15:10:04.120Z,33.95
2022-07-31T15:12:30.628Z,46.15
2022-07-31T15:14:57.074Z,52.90
2022-07-31T15:17:23.676Z,48.67
2022-07-31T15:19:50.374Z,42.35
2022-07-31T15:22:19.710Z,47.60
2022-07-31T15:24:49.629Z,47.22
2022-07-31T15:27:21.549Z,42.78
2022-07-31T15:30:00.440Z,51.17
2022-07-31T15:32:33.746Z,20.83
2022-07-31T15:35:00.247Z,16.33
2022-07-31T15:37:26.705Z,19.15
2022-07-31T15:40:02.824Z,17.45
2022-07-31T15:42:32.017Z,16.85
2022-07-31T15:44:58.822Z,25.40
2022-07-31T15:47:25.421Z,42.30
2022-07-31T15:49:51.821Z,38.67
2022-07-31T15:52:19.288Z,41.17
2022-07-31T15:54:46.702Z,29.85
2022-07-31T15:57:13.474Z,37.63
2022-07-31T15:59:39.997Z,34.20
2022-07-31T16:02:07.213Z,32.17
2022-07-31T16:04:34.851Z,31.30
2022-07-31T16:08:29.871Z,32.03
2022-07-31T16:10:14.857Z,30.42
2022-07-31T16:12:35.404Z,30.17
2022-07-31T16:15:02.452Z,30.67
2022-07-31T16:17:37.742Z,38.95
2022-07-31T16:20:07.058Z,46.08
2022-07-31T16:22:33.716Z,48.60
2022-07-31T16:25:00.107Z,43.33
2022-07-31T16:27:26.657Z,38.65
2022-07-31T16:29:59.404Z,50.33
2022-07-31T16:32:28.604Z,47.25
2022-07-31T16:34:58.476Z,49.63
2022-07-31T16:37:50.252Z,48.47
2022-07-31T16:40:28.682Z,46.42
2022-07-31T16:43:02.020Z,47.17
2022-07-31T16:45:29.645Z,47.88
2022-07-31T16:47:56.875Z,43.47
2022-07-31T16:50:23.754Z,45.28
2022-07-31T16:52:54.562Z,41.30
2022-07-31T16:55:51.669Z,45.25
2022-07-31T16:58:11.484Z,46.47
2022-07-31T17:00:39.271Z,44.15
2022-07-31T17:03:06.005Z,36.38
2022-07-31T17:05:32.467Z,45.30
2022-07-31T17:07:59.031Z,36.67
2022-07-31T17:10:26.188Z,28.15
2022-07-31T17:12:53.616Z,34.83
2022-07-31T17:15:20.688Z,30.38
2022-07-31T17:17:47.390Z,29.92
2022-07-31T17:20:14.981Z,26.83
2022-07-31T17:22:41.562Z,25.92
2022-07-31T17:25:09.830Z,24.00
2022-07-31T17:27:36.325Z,26.25
2022-07-31T17:30:03.476Z,23.50
2022-07-31T17:32:32.060Z,28.60
2022-07-31T17:34:58.460Z,30.58
2022-07-31T17:37:25.144Z,26.90
2022-07-31T17:39:55.169Z,28.75
2022-07-31T17:42:25.208Z,22.75
2022-07-31T17:44:55.263Z,28.25
2022-07-31T17:47:25.448Z,23.88
2022-07-31T17:49:52.905Z,21.75
2022-07-31T17:52:20.866Z,28.52
2022-07-31T17:54:47.928Z,26.77
2022-07-31T17:57:14.624Z,23.48
2022-07-31T17:59:43.292Z,24.52
2022-07-31T18:02:10.444Z,22.67
2022-07-31T18:04:37.632Z,23.80
2022-07-31T18:07:05.900Z,21.73
2022-07-31T18:09:33.089Z,21.17
2022-07-31T18:11:59.924Z,23.83
2022-07-31T18:14:26.497Z,22.58
2022-07-31T18:16:53.535Z,22.42
2022-07-31T18:19:21.772Z,19.98
2022-07-31T18:21:48.812Z,20.50
2022-07-31T18:24:15.282Z,19.63
2022-07-31T18:26:41.747Z,19.20
2022-07-31T18:29:08.259Z,20.15
2022-07-31T18:31:35.961Z,19.25
2022-07-31T18:34:04.823Z,19.05
2022-07-31T18:36:32.566Z,18.65
2022-07-31T18:38:59.027Z,17.65
2022-07-31T18:41:25.502Z,18.15
2022-07-31T18:43:52.045Z,18.17
2022-07-31T18:46:19.918Z,18.25
2022-07-31T18:48:46.471Z,17.92
2022-07-31T18:51:13.018Z,17.98
2022-07-31T18:53:39.469Z,19.13
2022-07-31T18:56:05.940Z,18.73
2022-07-31T18:58:32.388Z,19.00
2022-07-31T19:00:58.868Z,22.42
2022-07-31T19:03:26.264Z,30.30
2022-07-31T19:05:53.616Z,34.85
2022-07-31T19:08:20.452Z,37.75
2022-07-31T19:10:49.116Z,64.78
2022-07-31T19:13:19.065Z,82.93
2022-07-31T19:15:51.545Z,104.40
2022-07-31T19:18:20.408Z,117.35
2022-07-31T19:21:00.295Z,98.13
2022-07-31T19:23:41.558Z,110.82
2022-07-31T19:26:09.968Z,119.13
2022-07-31T19:28:36.701Z,91.00
2022-07-31T19:31:03.561Z,79.65
2022-07-31T19:33:30.117Z,72.75
2022-07-31T19:36:02.023Z,64.25
2022-07-31T19:38:33.058Z,65.85
2022-07-31T19:41:00.091Z,70.82
2022-07-31T19:43:26.800Z,80.78
2022-07-31T19:45:58.804Z,75.43
2022-07-31T19:48:39.575Z,82.63
2022-07-31T19:51:06.341Z,82.72
2022-07-31T19:53:32.759Z,76.68
2022-07-31T19:56:01.505Z,75.75
2022-07-31T19:58:27.929Z,73.90
2022-07-31T20:00:54.344Z,72.57
2022-07-31T20:03:20.837Z,78.40
2022-07-31T20:05:47.292Z,77.40
2022-07-31T20:08:13.686Z,82.00
2022-07-31T20:10:40.105Z,78.85
2022-07-31T20:13:06.491Z,86.25
2022-07-31T20:15:51.204Z,89.00
2022-07-31T20:18:27.404Z,89.10
2022-07-31T20:20:56.915Z,88.90
2022-07-31T20:23:23.782Z,74.57
2022-07-31T20:25:50.237Z,73.00
2022-07-31T20:28:16.850Z,77.97
2022-07-31T20:30:43.253Z,84.90
2022-07-31T20:33:11.140Z,79.50
2022-07-31T20:35:47.769Z,81.78
2022-07-31T20:38:16.651Z,77.10
2022-07-31T20:40:48.021Z,78.30
2022-07-31T20:43:21.055Z,86.95
2022-07-31T20:45:48.186Z,87.22
2022-07-31T20:48:17.575Z,88.43
2022-07-31T20:50:44.062Z,110.25
2022-07-31T20:53:14.615Z,108.80
2022-07-31T20:55:41.046Z,117.05
2022-07-31T20:58:07.473Z,103.90
2022-07-31T21:00:37.991Z,111.63
2022-07-31T21:03:05.819Z,91.78
2022-07-31T21:05:32.468Z,106.43
2022-07-31T21:07:58.998Z,95.40
2022-07-31T21:10:29.539Z,104.60
2022-07-31T21:12:56.716Z,94.90
2022-07-31T21:15:31.189Z,95.90
2022-07-31T21:18:11.283Z,95.38
2022-07-31T21:20:50.016Z,89.75
2022-07-31T21:23:23.822Z,90.55
2022-07-31T21:25:52.461Z,89.30
2022-07-31T21:28:19.388Z,90.03
2022-07-31T21:30:46.197Z,89.68
2022-07-31T21:33:12.687Z,88.95
2022-07-31T21:35:40.159Z,82.57
2022-07-31T21:38:12.154Z,85.40
2022-07-31T21:40:39.881Z,85.15
2022-07-31T21:43:06.715Z,87.70
2022-07-31T21:45:50.670Z,87.28
2022-07-31T21:48:22.287Z,84.85
2022-07-31T21:50:49.059Z,77.60
2022-07-31T21:53:15.694Z,71.90
2022-07-31T21:55:42.372Z,66.40
2022-07-31T21:58:09.268Z,65.50
2022-07-31T22:00:35.959Z,76.03
2022-07-31T22:03:02.894Z,79.22
2022-07-31T22:05:48.988Z,81.82
2022-07-31T22:08:16.333Z,77.10
2022-07-31T22:10:42.994Z,77.28
2022-07-31T22:13:09.641Z,76.45
2022-07-31T22:15:58.906Z,78.20
2022-07-31T22:18:22.819Z,68.18
2022-07-31T22:20:53.129Z,76.82
2022-07-31T22:23:19.804Z,73.45
2022-07-31T22:25:48.810Z,73.47
2022-07-31T22:28:18.680Z,63.65
2022-07-31T22:30:45.635Z,54.42
2022-07-31T22:33:12.279Z,56.35
2022-07-31T22:35:40.540Z,55.05
2022-07-31T22:38:07.805Z,51.72
2022-07-31T22:40:34.358Z,49.88
2022-07-31T22:43:02.581Z,50.38
2022-07-31T22:45:30.006Z,52.10
2022-07-31T22:47:57.402Z,57.38
2022-07-31T22:50:23.970Z,64.90
2022-07-31T22:52:50.395Z,59.08
2022-07-31T22:55:16.885Z,62.53
2022-07-31T22:57:46.264Z,65.20
2022-07-31T23:00:14.618Z,72.03
2022-07-31T23:02:42.149Z,71.70
2022-07-31T23:05:09.241Z,66.03
2022-07-31T23:07:35.773Z,67.40
2022-07-31T23:10:02.405Z,67.40
2022-07-31T23:12:29.481Z,70.57
2022-07-31T23:14:56.067Z,73.90
2022-07-31T23:17:23.522Z,70.97
2022-07-31T23:19:53.739Z,72.70
2022-07-31T23:22:33.190Z,76.20
2022-07-31T23:25:01.950Z,76.07
2022-07-31T23:27:28.515Z,76.45
2022-07-31T23:29:55.027Z,75.43
2022-07-31T23:32:21.528Z,66.97
2022-07-31T23:34:48.008Z,73.20
2022-07-31T23:37:14.519Z,68.95
2022-07-31T23:39:41.106Z,69.82
2022-07-31T23:42:26.174Z,72.57
2022-07-31T23:44:52.583Z,73.10
2022-07-31T23:47:19.168Z,68.28
2022-07-31T23:49:46.562Z,73.07
2022-07-31T23:52:12.990Z,69.75
2022-07-31T23:54:39.572Z,67.00
2022-07-31T23:57:06.027Z,68.75
2022-07-31T23:59:32.410Z,65.22
